Αρχική σελίδα
METAR-TAF:

METAR-TAF

Αεροδρόμια :

Elkhart-Morton County Airport

Elkhart, Κάνσας, Ηνωμένες Πολιτείες Αμερικής

γεωγραφικό πλάτος: 37-00N, γεωγραφικό μήκος: 101-54W, υψόμετρο: 1099 μ

Παρών καιρός

Η αναφορά έγινε 22 λεπτά πριν, στις 23:15 UTC
Άνεμος 6 kt από BA
Θερμοκρασία 38°C
Υγρασία 33%
Πίεση 1015 hPa
Ορατότητα: 16.1 χλμ
Καθαρός ουρανός

METAR: KEHA 222315Z AUTO 04006KT 10SM CLR 38/19 A2996 RMK AO2 T03830191

Χρόνος: 18:37 (23:37 UTC)


TAF: λείπει

Μετεωρολογικές αναφορές και προγνώσεις για περισσότερα από 4000 αεροδρόμια (δελτία METAR και TAF).

Οι διαθέσιμοι σταθμοί απεικονίζονται στο χάρτη με κίτρινες και κόκκινες κουκκίδες.

Μετακινήστε το ποντίκι πάνω από τις κουκκίδες για να δείτε το όνομα του σταθμού.

Στη συνέχεια, κάντε κλικ για να δείτε τις μετεωρολογικές αναφορές και τις προγνώσεις καιρού.

Για να αλλάξετε το χάρτη: κάντε κλικ στα πράσινα κουμπιά με τον μαύρο σταυρό για να ζουμάρετε, στο πράσινο κουμπί με την παύλα για να αφαιρέσετε το ζουμ ή στα πράσινα βέλη για να αντιπαραβάλλετε χάρτες.


METAR-TAF: